sensor_id;sensor_type;location;lat;lon;timestamp;P1;durP1;ratioP1;P2;durP2;ratioP2
16326;SDS011;34812;49.846;9.610;2023-09-12T00:04:22;5.53;;;2.78;;
16326;SDS011;34812;49.846;9.610;2023-09-12T00:09:24;9.23;;;3.75;;
16326;SDS011;34812;49.846;9.610;2023-09-12T00:14:29;6.13;;;3.60;;
16326;SDS011;34812;49.846;9.610;2023-09-12T00:19:31;8.05;;;4.03;;
16326;SDS011;34812;49.846;9.610;2023-09-12T00:24:33;5.95;;;3.38;;
16326;SDS011;34812;49.846;9.610;2023-09-12T00:29:36;7.88;;;3.95;;
16326;SDS011;34812;49.846;9.610;2023-09-12T00:34:38;6.05;;;3.47;;
16326;SDS011;34812;49.846;9.610;2023-09-12T00:39:41;10.88;;;4.15;;
16326;SDS011;34812;49.846;9.610;2023-09-12T00:44:44;9.40;;;3.97;;
16326;SDS011;34812;49.846;9.610;2023-09-12T00:49:46;5.95;;;3.13;;
16326;SDS011;34812;49.846;9.610;2023-09-12T00:54:49;13.35;;;3.70;;
16326;SDS011;34812;49.846;9.610;2023-09-12T00:59:52;6.95;;;3.58;;
16326;SDS011;34812;49.846;9.610;2023-09-12T01:04:55;11.07;;;3.65;;
16326;SDS011;34812;49.846;9.610;2023-09-12T01:09:57;6.75;;;4.03;;
16326;SDS011;34812;49.846;9.610;2023-09-12T01:15:01;8.98;;;3.63;;
16326;SDS011;34812;49.846;9.610;2023-09-12T01:20:06;3.78;;;3.17;;
16326;SDS011;34812;49.846;9.610;2023-09-12T01:25:14;6.22;;;3.28;;
16326;SDS011;34812;49.846;9.610;2023-09-12T01:30:23;8.27;;;3.67;;
16326;SDS011;34812;49.846;9.610;2023-09-12T01:35:28;9.02;;;3.65;;
16326;SDS011;34812;49.846;9.610;2023-09-12T01:40:31;5.72;;;3.90;;
16326;SDS011;34812;49.846;9.610;2023-09-12T01:45:36;10.95;;;3.80;;
16326;SDS011;34812;49.846;9.610;2023-09-12T01:50:39;5.80;;;3.35;;
16326;SDS011;34812;49.846;9.610;2023-09-12T01:55:41;5.70;;;3.97;;
16326;SDS011;34812;49.846;9.610;2023-09-12T02:00:45;5.32;;;4.32;;
16326;SDS011;34812;49.846;9.610;2023-09-12T02:05:47;11.27;;;4.15;;
16326;SDS011;34812;49.846;9.610;2023-09-12T02:10:50;10.82;;;4.72;;
16326;SDS011;34812;49.846;9.610;2023-09-12T02:15:59;8.20;;;4.47;;
16326;SDS011;34812;49.846;9.610;2023-09-12T02:21:03;6.00;;;3.57;;
16326;SDS011;34812;49.846;9.610;2023-09-12T02:26:05;5.57;;;3.20;;
16326;SDS011;34812;49.846;9.610;2023-09-12T02:31:10;8.23;;;3.67;;
16326;SDS011;34812;49.846;9.610;2023-09-12T02:36:13;8.83;;;3.77;;
16326;SDS011;34812;49.846;9.610;2023-09-12T02:41:15;4.20;;;3.35;;
16326;SDS011;34812;49.846;9.610;2023-09-12T02:46:18;4.27;;;3.53;;
16326;SDS011;34812;49.846;9.610;2023-09-12T02:51:20;10.60;;;3.93;;
16326;SDS011;34812;49.846;9.610;2023-09-12T02:56:24;10.50;;;4.33;;
16326;SDS011;34812;49.846;9.610;2023-09-12T03:01:28;4.93;;;3.90;;
16326;SDS011;34812;49.846;9.610;2023-09-12T03:06:30;5.30;;;3.53;;
16326;SDS011;34812;49.846;9.610;2023-09-12T03:11:33;6.57;;;3.97;;
16326;SDS011;34812;49.846;9.610;2023-09-12T03:16:37;5.60;;;4.10;;
16326;SDS011;34812;49.846;9.610;2023-09-12T03:21:40;5.30;;;4.03;;
16326;SDS011;34812;49.846;9.610;2023-09-12T03:26:42;7.13;;;3.87;;
16326;SDS011;34812;49.846;9.610;2023-09-12T03:31:45;5.13;;;3.23;;
16326;SDS011;34812;49.846;9.610;2023-09-12T03:36:48;4.23;;;3.80;;
16326;SDS011;34812;49.846;9.610;2023-09-12T03:41:50;5.77;;;3.20;;
16326;SDS011;34812;49.846;9.610;2023-09-12T03:46:54;7.43;;;3.90;;
16326;SDS011;34812;49.846;9.610;2023-09-12T03:51:56;7.20;;;3.80;;
16326;SDS011;34812;49.846;9.610;2023-09-12T03:56:59;5.43;;;4.27;;
16326;SDS011;34812;49.846;9.610;2023-09-12T04:02:03;6.37;;;3.93;;
16326;SDS011;34812;49.846;9.610;2023-09-12T04:07:05;7.43;;;4.43;;
16326;SDS011;34812;49.846;9.610;2023-09-12T04:12:08;11.70;;;5.30;;
16326;SDS011;34812;49.846;9.610;2023-09-12T04:17:12;11.43;;;5.63;;
16326;SDS011;34812;49.846;9.610;2023-09-12T04:22:14;9.57;;;5.43;;
16326;SDS011;34812;49.846;9.610;2023-09-12T04:27:16;5.90;;;4.30;;
16326;SDS011;34812;49.846;9.610;2023-09-12T04:32:20;4.57;;;3.70;;
16326;SDS011;34812;49.846;9.610;2023-09-12T04:37:23;7.03;;;3.60;;
16326;SDS011;34812;49.846;9.610;2023-09-12T04:42:26;11.07;;;4.53;;
16326;SDS011;34812;49.846;9.610;2023-09-12T04:47:29;5.70;;;4.23;;
16326;SDS011;34812;49.846;9.610;2023-09-12T04:52:32;7.97;;;4.00;;
16326;SDS011;34812;49.846;9.610;2023-09-12T04:57:34;8.83;;;3.87;;
16326;SDS011;34812;49.846;9.610;2023-09-12T05:02:37;10.57;;;5.33;;
16326;SDS011;34812;49.846;9.610;2023-09-12T05:07:40;16.63;;;6.43;;
16326;SDS011;34812;49.846;9.610;2023-09-12T05:12:42;6.80;;;5.10;;
16326;SDS011;34812;49.846;9.610;2023-09-12T05:17:45;8.00;;;5.70;;
16326;SDS011;34812;49.846;9.610;2023-09-12T05:22:47;10.73;;;5.40;;
16326;SDS011;34812;49.846;9.610;2023-09-12T05:27:49;8.55;;;5.50;;
16326;SDS011;34812;49.846;9.610;2023-09-12T05:32:53;12.35;;;6.32;;
16326;SDS011;34812;49.846;9.610;2023-09-12T05:37:55;12.43;;;5.63;;
16326;SDS011;34812;49.846;9.610;2023-09-12T05:42:57;7.68;;;5.05;;
16326;SDS011;34812;49.846;9.610;2023-09-12T05:48:01;5.38;;;4.32;;
16326;SDS011;34812;49.846;9.610;2023-09-12T05:53:04;7.47;;;5.03;;
16326;SDS011;34812;49.846;9.610;2023-09-12T05:58:06;7.45;;;5.40;;
16326;SDS011;34812;49.846;9.610;2023-09-12T06:03:13;6.25;;;4.90;;
16326;SDS011;34812;49.846;9.610;2023-09-12T06:08:16;9.05;;;4.35;;
16326;SDS011;34812;49.846;9.610;2023-09-12T06:13:18;7.05;;;4.80;;
16326;SDS011;34812;49.846;9.610;2023-09-12T06:18:21;7.55;;;4.15;;
16326;SDS011;34812;49.846;9.610;2023-09-12T06:23:24;4.80;;;4.22;;
16326;SDS011;34812;49.846;9.610;2023-09-12T06:28:26;6.10;;;3.95;;
16326;SDS011;34812;49.846;9.610;2023-09-12T06:33:29;6.78;;;4.43;;
16326;SDS011;34812;49.846;9.610;2023-09-12T06:38:32;5.70;;;4.40;;
16326;SDS011;34812;49.846;9.610;2023-09-12T06:43:34;8.48;;;4.72;;
16326;SDS011;34812;49.846;9.610;2023-09-12T06:48:37;10.50;;;4.88;;
16326;SDS011;34812;49.846;9.610;2023-09-12T06:53:39;9.07;;;3.78;;
16326;SDS011;34812;49.846;9.610;2023-09-12T06:58:41;10.13;;;3.78;;
16326;SDS011;34812;49.846;9.610;2023-09-12T07:03:45;8.27;;;4.20;;
16326;SDS011;34812;49.846;9.610;2023-09-12T07:08:47;5.35;;;4.20;;
16326;SDS011;34812;49.846;9.610;2023-09-12T07:13:49;4.82;;;3.78;;
16326;SDS011;34812;49.846;9.610;2023-09-12T07:18:52;10.45;;;4.63;;
16326;SDS011;34812;49.846;9.610;2023-09-12T07:23:54;14.07;;;4.35;;
16326;SDS011;34812;49.846;9.610;2023-09-12T07:28:57;5.57;;;3.78;;
16326;SDS011;34812;49.846;9.610;2023-09-12T07:34:03;8.98;;;4.25;;
16326;SDS011;34812;49.846;9.610;2023-09-12T07:39:06;6.03;;;3.72;;
16326;SDS011;34812;49.846;9.610;2023-09-12T07:44:08;9.55;;;4.25;;
16326;SDS011;34812;49.846;9.610;2023-09-12T07:49:12;7.18;;;4.18;;
16326;SDS011;34812;49.846;9.610;2023-09-12T07:54:14;9.85;;;4.18;;
16326;SDS011;34812;49.846;9.610;2023-09-12T07:59:18;6.85;;;3.97;;
16326;SDS011;34812;49.846;9.610;2023-09-12T08:04:21;4.28;;;3.67;;
16326;SDS011;34812;49.846;9.610;2023-09-12T08:09:23;7.78;;;4.10;;
16326;SDS011;34812;49.846;9.610;2023-09-12T08:14:25;7.50;;;3.92;;
16326;SDS011;34812;49.846;9.610;2023-09-12T08:19:29;5.95;;;3.95;;
16326;SDS011;34812;49.846;9.610;2023-09-12T08:24:31;7.40;;;4.40;;
16326;SDS011;34812;49.846;9.610;2023-09-12T08:29:33;7.53;;;3.97;;
16326;SDS011;34812;49.846;9.610;2023-09-12T08:34:37;7.32;;;3.75;;
16326;SDS011;34812;49.846;9.610;2023-09-12T08:39:40;9.60;;;3.35;;
16326;SDS011;34812;49.846;9.610;2023-09-12T08:44:43;6.05;;;3.40;;
16326;SDS011;34812;49.846;9.610;2023-09-12T08:49:46;10.70;;;4.10;;
16326;SDS011;34812;49.846;9.610;2023-09-12T08:54:48;5.68;;;3.90;;
16326;SDS011;34812;49.846;9.610;2023-09-12T08:59:51;11.25;;;4.00;;
16326;SDS011;34812;49.846;9.610;2023-09-12T09:04:55;9.35;;;4.57;;
16326;SDS011;34812;49.846;9.610;2023-09-12T09:09:57;11.35;;;4.32;;
16326;SDS011;34812;49.846;9.610;2023-09-12T09:15:00;11.95;;;4.95;;
16326;SDS011;34812;49.846;9.610;2023-09-12T09:20:23;7.18;;;3.67;;
16326;SDS011;34812;49.846;9.610;2023-09-12T09:25:27;10.05;;;3.70;;
16326;SDS011;34812;49.846;9.610;2023-09-12T09:30:41;4.50;;;3.35;;
16326;SDS011;34812;49.846;9.610;2023-09-12T09:35:45;11.48;;;4.35;;
16326;SDS011;34812;49.846;9.610;2023-09-12T09:40:47;8.98;;;4.10;;
16326;SDS011;34812;49.846;9.610;2023-09-12T09:45:50;7.90;;;3.72;;
16326;SDS011;34812;49.846;9.610;2023-09-12T09:50:54;8.55;;;3.28;;
16326;SDS011;34812;49.846;9.610;2023-09-12T09:56:08;9.63;;;4.75;;
16326;SDS011;34812;49.846;9.610;2023-09-12T10:01:11;7.43;;;4.03;;
16326;SDS011;34812;49.846;9.610;2023-09-12T10:06:16;6.15;;;3.72;;
16326;SDS011;34812;49.846;9.610;2023-09-12T10:11:19;4.97;;;3.28;;
16326;SDS011;34812;49.846;9.610;2023-09-12T10:16:23;6.15;;;3.63;;
16326;SDS011;34812;49.846;9.610;2023-09-12T10:21:29;8.63;;;3.42;;
16326;SDS011;34812;49.846;9.610;2023-09-12T10:26:32;5.85;;;2.78;;
16326;SDS011;34812;49.846;9.610;2023-09-12T10:31:34;8.98;;;2.80;;
16326;SDS011;34812;49.846;9.610;2023-09-12T10:36:39;9.75;;;2.85;;
16326;SDS011;34812;49.846;9.610;2023-09-12T10:41:41;3.75;;;3.10;;
16326;SDS011;34812;49.846;9.610;2023-09-12T10:46:44;9.13;;;3.15;;
16326;SDS011;34812;49.846;9.610;2023-09-12T10:51:48;5.40;;;2.80;;
16326;SDS011;34812;49.846;9.610;2023-09-12T10:57:01;6.85;;;3.22;;
16326;SDS011;34812;49.846;9.610;2023-09-12T11:07:44;7.55;;;3.22;;
16326;SDS011;34812;49.846;9.610;2023-09-12T11:12:47;6.55;;;3.10;;
16326;SDS011;34812;49.846;9.610;2023-09-12T11:17:53;9.70;;;2.83;;
16326;SDS011;34812;49.846;9.610;2023-09-12T11:23:10;4.53;;;2.60;;
16326;SDS011;34812;49.846;9.610;2023-09-12T11:28:12;5.15;;;2.55;;
16326;SDS011;34812;49.846;9.610;2023-09-12T11:33:15;9.25;;;2.85;;
16326;SDS011;34812;49.846;9.610;2023-09-12T11:38:25;7.65;;;2.38;;
16326;SDS011;34812;49.846;9.610;2023-09-12T11:43:28;6.55;;;2.97;;
16326;SDS011;34812;49.846;9.610;2023-09-12T11:48:30;5.32;;;2.80;;
16326;SDS011;34812;49.846;9.610;2023-09-12T11:53:34;13.75;;;2.92;;
16326;SDS011;34812;49.846;9.610;2023-09-12T11:58:36;4.60;;;2.95;;
16326;SDS011;34812;49.846;9.610;2023-09-12T12:03:39;8.45;;;2.30;;
16326;SDS011;34812;49.846;9.610;2023-09-12T12:08:42;6.32;;;2.97;;
16326;SDS011;34812;49.846;9.610;2023-09-12T12:13:46;9.55;;;2.67;;
16326;SDS011;34812;49.846;9.610;2023-09-12T12:18:48;7.07;;;2.60;;
16326;SDS011;34812;49.846;9.610;2023-09-12T12:23:59;5.00;;;3.40;;
16326;SDS011;34812;49.846;9.610;2023-09-12T12:29:03;6.78;;;2.92;;
16326;SDS011;34812;49.846;9.610;2023-09-12T12:34:05;3.42;;;2.90;;
16326;SDS011;34812;49.846;9.610;2023-09-12T12:39:11;5.97;;;3.33;;
16326;SDS011;34812;49.846;9.610;2023-09-12T12:44:13;14.18;;;2.95;;
16326;SDS011;34812;49.846;9.610;2023-09-12T12:49:16;3.65;;;2.70;;
16326;SDS011;34812;49.846;9.610;2023-09-12T12:54:21;5.63;;;3.05;;
16326;SDS011;34812;49.846;9.610;2023-09-12T12:59:24;10.85;;;3.05;;
16326;SDS011;34812;49.846;9.610;2023-09-12T13:04:26;9.90;;;3.17;;
16326;SDS011;34812;49.846;9.610;2023-09-12T13:09:29;6.72;;;2.92;;
16326;SDS011;34812;49.846;9.610;2023-09-12T13:14:31;3.85;;;3.13;;
16326;SDS011;34812;49.846;9.610;2023-09-12T13:19:33;5.32;;;2.75;;
16326;SDS011;34812;49.846;9.610;2023-09-12T13:24:37;4.60;;;2.85;;
16326;SDS011;34812;49.846;9.610;2023-09-12T13:29:39;3.78;;;2.75;;
16326;SDS011;34812;49.846;9.610;2023-09-12T13:34:41;4.40;;;3.33;;
16326;SDS011;34812;49.846;9.610;2023-09-12T13:39:45;16.52;;;3.28;;
16326;SDS011;34812;49.846;9.610;2023-09-12T13:44:48;7.78;;;3.40;;
16326;SDS011;34812;49.846;9.610;2023-09-12T13:49:51;7.20;;;3.20;;
16326;SDS011;34812;49.846;9.610;2023-09-12T13:54:54;7.80;;;3.08;;
16326;SDS011;34812;49.846;9.610;2023-09-12T13:59:57;4.93;;;2.90;;
16326;SDS011;34812;49.846;9.610;2023-09-12T14:04:59;6.53;;;3.20;;
16326;SDS011;34812;49.846;9.610;2023-09-12T14:10:03;9.65;;;2.70;;
16326;SDS011;34812;49.846;9.610;2023-09-12T14:15:05;7.40;;;2.92;;
16326;SDS011;34812;49.846;9.610;2023-09-12T14:20:08;6.47;;;3.10;;
16326;SDS011;34812;49.846;9.610;2023-09-12T14:25:12;3.55;;;2.42;;
16326;SDS011;34812;49.846;9.610;2023-09-12T14:30:15;6.55;;;3.15;;
16326;SDS011;34812;49.846;9.610;2023-09-12T14:35:17;4.35;;;3.20;;
16326;SDS011;34812;49.846;9.610;2023-09-12T14:40:20;4.70;;;2.78;;
16326;SDS011;34812;49.846;9.610;2023-09-12T14:45:22;10.40;;;3.70;;
16326;SDS011;34812;49.846;9.610;2023-09-12T14:50:25;4.50;;;2.70;;
16326;SDS011;34812;49.846;9.610;2023-09-12T14:55:30;3.90;;;2.78;;
16326;SDS011;34812;49.846;9.610;2023-09-12T15:00:33;6.00;;;2.60;;
16326;SDS011;34812;49.846;9.610;2023-09-12T15:05:36;4.97;;;2.53;;
16326;SDS011;34812;49.846;9.610;2023-09-12T15:10:39;7.80;;;2.78;;
16326;SDS011;34812;49.846;9.610;2023-09-12T15:15:41;6.85;;;3.03;;
16326;SDS011;34812;49.846;9.610;2023-09-12T15:20:43;6.63;;;3.08;;
16326;SDS011;34812;49.846;9.610;2023-09-12T15:25:47;3.33;;;2.88;;
16326;SDS011;34812;49.846;9.610;2023-09-12T15:30:49;6.68;;;3.03;;
16326;SDS011;34812;49.846;9.610;2023-09-12T15:35:51;9.60;;;3.40;;
16326;SDS011;34812;49.846;9.610;2023-09-12T15:40:55;7.40;;;2.92;;
16326;SDS011;34812;49.846;9.610;2023-09-12T15:45:57;7.00;;;3.00;;
16326;SDS011;34812;49.846;9.610;2023-09-12T15:50:59;3.88;;;2.47;;
16326;SDS011;34812;49.846;9.610;2023-09-12T15:56:05;6.38;;;3.17;;
16326;SDS011;34812;49.846;9.610;2023-09-12T16:01:07;5.90;;;2.90;;
16326;SDS011;34812;49.846;9.610;2023-09-12T16:06:09;3.33;;;2.97;;
16326;SDS011;34812;49.846;9.610;2023-09-12T16:11:13;4.68;;;2.97;;
16326;SDS011;34812;49.846;9.610;2023-09-12T16:16:15;6.53;;;3.10;;
16326;SDS011;34812;49.846;9.610;2023-09-12T16:21:17;5.15;;;2.92;;
16326;SDS011;34812;49.846;9.610;2023-09-12T16:26:21;5.35;;;3.05;;
16326;SDS011;34812;49.846;9.610;2023-09-12T16:31:23;9.48;;;2.80;;
16326;SDS011;34812;49.846;9.610;2023-09-12T16:36:25;5.53;;;2.78;;
16326;SDS011;34812;49.846;9.610;2023-09-12T16:41:28;4.38;;;3.47;;
16326;SDS011;34812;49.846;9.610;2023-09-12T16:46:31;6.53;;;2.58;;
16326;SDS011;34812;49.846;9.610;2023-09-12T16:51:33;3.92;;;2.78;;
16326;SDS011;34812;49.846;9.610;2023-09-12T16:56:36;7.25;;;3.15;;
16326;SDS011;34812;49.846;9.610;2023-09-12T17:01:38;5.03;;;3.00;;
16326;SDS011;34812;49.846;9.610;2023-09-12T17:06:40;2.80;;;2.53;;
16326;SDS011;34812;49.846;9.610;2023-09-12T17:11:44;6.63;;;3.92;;
16326;SDS011;34812;49.846;9.610;2023-09-12T17:16:46;6.85;;;3.05;;
16326;SDS011;34812;49.846;9.610;2023-09-12T17:21:48;5.97;;;2.85;;
16326;SDS011;34812;49.846;9.610;2023-09-12T17:26:52;6.93;;;3.65;;
16326;SDS011;34812;49.846;9.610;2023-09-12T17:31:54;9.05;;;3.55;;
16326;SDS011;34812;49.846;9.610;2023-09-12T17:36:56;8.35;;;3.28;;
16326;SDS011;34812;49.846;9.610;2023-09-12T17:42:00;9.98;;;2.97;;
16326;SDS011;34812;49.846;9.610;2023-09-12T17:47:02;6.57;;;3.90;;
16326;SDS011;34812;49.846;9.610;2023-09-12T17:52:04;15.65;;;3.15;;
16326;SDS011;34812;49.846;9.610;2023-09-12T17:57:07;7.10;;;3.65;;
16326;SDS011;34812;49.846;9.610;2023-09-12T18:02:10;4.05;;;3.15;;
16326;SDS011;34812;49.846;9.610;2023-09-12T18:07:12;6.95;;;4.22;;
16326;SDS011;34812;49.846;9.610;2023-09-12T18:12:18;3.97;;;3.60;;
16326;SDS011;34812;49.846;9.610;2023-09-12T18:17:20;4.10;;;3.63;;
16326;SDS011;34812;49.846;9.610;2023-09-12T18:22:22;5.32;;;3.75;;
16326;SDS011;34812;49.846;9.610;2023-09-12T18:27:25;4.78;;;3.25;;
16326;SDS011;34812;49.846;9.610;2023-09-12T18:32:28;4.68;;;3.70;;
16326;SDS011;34812;49.846;9.610;2023-09-12T18:37:30;7.68;;;3.90;;
16326;SDS011;34812;49.846;9.610;2023-09-12T18:42:34;5.97;;;4.05;;
16326;SDS011;34812;49.846;9.610;2023-09-12T18:47:36;5.63;;;3.97;;
16326;SDS011;34812;49.846;9.610;2023-09-12T18:52:38;7.57;;;4.47;;
16326;SDS011;34812;49.846;9.610;2023-09-12T18:57:41;5.70;;;3.38;;
16326;SDS011;34812;49.846;9.610;2023-09-12T19:02:46;7.53;;;4.13;;
16326;SDS011;34812;49.846;9.610;2023-09-12T19:07:48;5.97;;;3.78;;
16326;SDS011;34812;49.846;9.610;2023-09-12T19:12:51;9.43;;;4.00;;
16326;SDS011;34812;49.846;9.610;2023-09-12T19:17:54;5.35;;;3.83;;
16326;SDS011;34812;49.846;9.610;2023-09-12T19:22:56;10.65;;;3.83;;
16326;SDS011;34812;49.846;9.610;2023-09-12T19:27:59;4.95;;;3.95;;
16326;SDS011;34812;49.846;9.610;2023-09-12T19:33:03;4.03;;;3.63;;
16326;SDS011;34812;49.846;9.610;2023-09-12T19:38:08;6.20;;;4.50;;
16326;SDS011;34812;49.846;9.610;2023-09-12T19:43:12;8.15;;;4.35;;
16326;SDS011;34812;49.846;9.610;2023-09-12T19:48:14;5.47;;;3.85;;
16326;SDS011;34812;49.846;9.610;2023-09-12T19:53:17;7.32;;;4.38;;
16326;SDS011;34812;49.846;9.610;2023-09-12T19:58:20;8.18;;;4.35;;
16326;SDS011;34812;49.846;9.610;2023-09-12T20:03:22;5.47;;;4.15;;
16326;SDS011;34812;49.846;9.610;2023-09-12T20:08:24;7.75;;;4.40;;
16326;SDS011;34812;49.846;9.610;2023-09-12T20:13:28;8.23;;;2.92;;
16326;SDS011;34812;49.846;9.610;2023-09-12T20:18:30;7.00;;;2.92;;
16326;SDS011;34812;49.846;9.610;2023-09-12T20:23:32;4.72;;;2.90;;
16326;SDS011;34812;49.846;9.610;2023-09-12T20:28:36;4.38;;;2.63;;
16326;SDS011;34812;49.846;9.610;2023-09-12T20:33:38;3.10;;;2.80;;
16326;SDS011;34812;49.846;9.610;2023-09-12T20:38:43;4.05;;;3.50;;
16326;SDS011;34812;49.846;9.610;2023-09-12T20:43:46;9.15;;;3.88;;
16326;SDS011;34812;49.846;9.610;2023-09-12T20:48:49;13.07;;;3.80;;
16326;SDS011;34812;49.846;9.610;2023-09-12T20:53:51;4.75;;;3.55;;
16326;SDS011;34812;49.846;9.610;2023-09-12T20:58:54;6.82;;;4.05;;
16326;SDS011;34812;49.846;9.610;2023-09-12T21:03:56;5.40;;;3.78;;
16326;SDS011;34812;49.846;9.610;2023-09-12T21:08:58;5.78;;;3.00;;
16326;SDS011;34812;49.846;9.610;2023-09-12T21:14:02;6.35;;;3.90;;
16326;SDS011;34812;49.846;9.610;2023-09-12T21:19:04;6.18;;;4.18;;
16326;SDS011;34812;49.846;9.610;2023-09-12T21:24:06;9.30;;;4.72;;
16326;SDS011;34812;49.846;9.610;2023-09-12T21:29:10;5.78;;;3.97;;
16326;SDS011;34812;49.846;9.610;2023-09-12T21:34:12;7.47;;;3.75;;
16326;SDS011;34812;49.846;9.610;2023-09-12T21:39:14;4.55;;;3.50;;
16326;SDS011;34812;49.846;9.610;2023-09-12T21:44:17;9.07;;;3.88;;
16326;SDS011;34812;49.846;9.610;2023-09-12T21:49:19;5.95;;;4.53;;
16326;SDS011;34812;49.846;9.610;2023-09-12T21:54:21;5.22;;;3.97;;
16326;SDS011;34812;49.846;9.610;2023-09-12T21:59:25;4.80;;;3.72;;
16326;SDS011;34812;49.846;9.610;2023-09-12T22:04:27;4.70;;;4.20;;
16326;SDS011;34812;49.846;9.610;2023-09-12T22:09:29;6.88;;;3.72;;
16326;SDS011;34812;49.846;9.610;2023-09-12T22:14:33;8.52;;;5.25;;
16326;SDS011;34812;49.846;9.610;2023-09-12T22:19:35;9.68;;;4.93;;
16326;SDS011;34812;49.846;9.610;2023-09-12T22:24:37;7.38;;;5.15;;
16326;SDS011;34812;49.846;9.610;2023-09-12T22:29:40;8.55;;;5.13;;
16326;SDS011;34812;49.846;9.610;2023-09-12T22:34:42;7.00;;;4.05;;
16326;SDS011;34812;49.846;9.610;2023-09-12T22:39:45;7.95;;;4.88;;
16326;SDS011;34812;49.846;9.610;2023-09-12T22:44:49;11.68;;;4.78;;
16326;SDS011;34812;49.846;9.610;2023-09-12T22:49:51;7.18;;;4.47;;
16326;SDS011;34812;49.846;9.610;2023-09-12T22:54:53;7.32;;;5.05;;
16326;SDS011;34812;49.846;9.610;2023-09-12T22:59:56;8.30;;;4.68;;
16326;SDS011;34812;49.846;9.610;2023-09-12T23:04:59;11.77;;;4.90;;
16326;SDS011;34812;49.846;9.610;2023-09-12T23:10:01;7.97;;;4.80;;
16326;SDS011;34812;49.846;9.610;2023-09-12T23:15:05;5.28;;;4.60;;
16326;SDS011;34812;49.846;9.610;2023-09-12T23:20:08;12.55;;;5.03;;
16326;SDS011;34812;49.846;9.610;2023-09-12T23:25:12;8.05;;;5.47;;
16326;SDS011;34812;49.846;9.610;2023-09-12T23:30:16;8.15;;;4.88;;
16326;SDS011;34812;49.846;9.610;2023-09-12T23:35:18;6.63;;;5.30;;
16326;SDS011;34812;49.846;9.610;2023-09-12T23:40:21;5.50;;;4.80;;
16326;SDS011;34812;49.846;9.610;2023-09-12T23:45:24;6.15;;;5.28;;
16326;SDS011;34812;49.846;9.610;2023-09-12T23:50:26;7.32;;;5.07;;
16326;SDS011;34812;49.846;9.610;2023-09-12T23:55:31;8.45;;;5.40;;
